sensor_id;sensor_type;location;lat;lon;timestamp;pressure;altitude;pressure_sealevel;temperature;humidity
78409;BME280;67697;50.750;-3.270;2023-08-07T00:00:31;101505.78;;;17.26;58.50
78409;BME280;67697;50.750;-3.270;2023-08-07T00:02:55;101501.93;;;16.49;59.39
78409;BME280;67697;50.750;-3.270;2023-08-07T00:05:21;101500.83;;;17.19;57.90
78409;BME280;67697;50.750;-3.270;2023-08-07T00:07:47;101499.22;;;16.79;59.13
78409;BME280;67697;50.750;-3.270;2023-08-07T00:10:13;101500.05;;;17.18;58.05
78409;BME280;67697;50.750;-3.270;2023-08-07T00:12:38;101497.06;;;16.77;60.03
78409;BME280;67697;50.750;-3.270;2023-08-07T00:15:04;101497.24;;;16.51;60.85
78409;BME280;67697;50.750;-3.270;2023-08-07T00:17:29;101497.74;;;17.02;59.31
78409;BME280;67697;50.750;-3.270;2023-08-07T00:19:54;101499.25;;;16.66;60.63
78409;BME280;67697;50.750;-3.270;2023-08-07T00:22:20;101502.78;;;17.06;59.09
78409;BME280;67697;50.750;-3.270;2023-08-07T00:24:46;101503.88;;;16.93;59.08
78409;BME280;67697;50.750;-3.270;2023-08-07T00:27:11;101506.60;;;16.97;59.88
78409;BME280;67697;50.750;-3.270;2023-08-07T00:29:37;101506.10;;;16.18;62.47
78409;BME280;67697;50.750;-3.270;2023-08-07T00:32:03;101503.18;;;17.11;58.28
78409;BME280;67697;50.750;-3.270;2023-08-07T00:34:33;101492.44;;;17.94;56.16
78409;BME280;67697;50.750;-3.270;2023-08-07T00:36:54;101488.64;;;17.63;56.04
78409;BME280;67697;50.750;-3.270;2023-08-07T00:39:19;101489.46;;;18.18;54.75
78409;BME280;67697;50.750;-3.270;2023-08-07T00:41:45;101484.90;;;18.14;53.91
78409;BME280;67697;50.750;-3.270;2023-08-07T00:44:10;101487.21;;;16.64;57.01
78409;BME280;67697;50.750;-3.270;2023-08-07T00:46:37;101485.81;;;17.81;56.08
78409;BME280;67697;50.750;-3.270;2023-08-07T00:49:02;101487.97;;;18.08;54.53
78409;BME280;67697;50.750;-3.270;2023-08-07T00:51:27;101492.53;;;16.99;56.68
78409;BME280;67697;50.750;-3.270;2023-08-07T00:53:53;101492.53;;;17.47;56.65
78409;BME280;67697;50.750;-3.270;2023-08-07T00:56:19;101488.73;;;17.32;55.93
78409;BME280;67697;50.750;-3.270;2023-08-07T00:58:44;101486.69;;;16.28;60.39
78409;BME280;67697;50.750;-3.270;2023-08-07T01:01:10;101489.04;;;17.17;58.74
78409;BME280;67697;50.750;-3.270;2023-08-07T01:03:35;101490.86;;;16.66;59.27
78409;BME280;67697;50.750;-3.270;2023-08-07T01:06:02;101503.04;;;15.32;61.80
78409;BME280;67697;50.750;-3.270;2023-08-07T01:08:27;101501.79;;;15.89;60.76
78409;BME280;67697;50.750;-3.270;2023-08-07T01:11:05;101500.58;;;16.15;60.69
78409;BME280;67697;50.750;-3.270;2023-08-07T01:13:24;101489.90;;;16.63;58.10
78409;BME280;67697;50.750;-3.270;2023-08-07T01:15:52;101498.15;;;14.45;64.76
78409;BME280;67697;50.750;-3.270;2023-08-07T01:18:09;101490.41;;;15.93;60.91
78409;BME280;67697;50.750;-3.270;2023-08-07T01:20:35;101498.54;;;14.01;68.43
78409;BME280;67697;50.750;-3.270;2023-08-07T01:23:00;101486.88;;;15.71;62.83
78409;BME280;67697;50.750;-3.270;2023-08-07T01:25:25;101481.94;;;16.19;61.23
78409;BME280;67697;50.750;-3.270;2023-08-07T01:27:59;101481.49;;;16.89;59.03
78409;BME280;67697;50.750;-3.270;2023-08-07T01:30:21;101479.54;;;17.13;58.08
78409;BME280;67697;50.750;-3.270;2023-08-07T01:32:49;101475.01;;;17.19;57.68
78409;BME280;67697;50.750;-3.270;2023-08-07T01:35:09;101473.60;;;16.66;58.08
78409;BME280;67697;50.750;-3.270;2023-08-07T01:37:36;101468.62;;;17.60;56.51
78409;BME280;67697;50.750;-3.270;2023-08-07T01:40:00;101470.41;;;17.39;56.56
78409;BME280;67697;50.750;-3.270;2023-08-07T01:42:24;101478.85;;;16.98;57.13
78409;BME280;67697;50.750;-3.270;2023-08-07T01:44:50;101481.21;;;16.36;59.00
78409;BME280;67697;50.750;-3.270;2023-08-07T01:47:16;101483.13;;;17.36;56.03
78409;BME280;67697;50.750;-3.270;2023-08-07T01:49:41;101481.63;;;17.08;56.29
78409;BME280;67697;50.750;-3.270;2023-08-07T01:52:08;101483.72;;;16.75;55.71
78409;BME280;67697;50.750;-3.270;2023-08-07T01:54:32;101483.51;;;17.45;55.28
78409;BME280;67697;50.750;-3.270;2023-08-07T01:56:58;101486.57;;;17.21;56.81
78409;BME280;67697;50.750;-3.270;2023-08-07T01:59:24;101484.19;;;15.91;60.44
78409;BME280;67697;50.750;-3.270;2023-08-07T02:01:50;101483.25;;;15.70;61.20
78409;BME280;67697;50.750;-3.270;2023-08-07T02:04:15;101482.01;;;15.71;60.78
78409;BME280;67697;50.750;-3.270;2023-08-07T02:06:41;101479.33;;;17.62;56.70
78409;BME280;67697;50.750;-3.270;2023-08-07T02:09:06;101481.46;;;16.94;56.58
78409;BME280;67697;50.750;-3.270;2023-08-07T02:11:32;101479.73;;;17.68;54.84
78409;BME280;67697;50.750;-3.270;2023-08-07T02:13:57;101484.99;;;17.29;56.38
78409;BME280;67697;50.750;-3.270;2023-08-07T02:16:23;101487.89;;;17.01;56.32
78409;BME280;67697;50.750;-3.270;2023-08-07T02:18:49;101487.96;;;17.09;56.04
78409;BME280;67697;50.750;-3.270;2023-08-07T02:21:15;101479.90;;;16.20;57.98
78409;BME280;67697;50.750;-3.270;2023-08-07T02:23:40;101480.84;;;16.50;57.92
78409;BME280;67697;50.750;-3.270;2023-08-07T02:26:11;101478.88;;;17.03;56.57
78409;BME280;67697;50.750;-3.270;2023-08-07T02:28:31;101474.95;;;17.25;55.81
78409;BME280;67697;50.750;-3.270;2023-08-07T02:30:56;101471.36;;;16.14;59.95
78409;BME280;67697;50.750;-3.270;2023-08-07T02:33:22;101464.02;;;16.93;56.83
78409;BME280;67697;50.750;-3.270;2023-08-07T02:35:48;101462.38;;;16.85;56.59
78409;BME280;67697;50.750;-3.270;2023-08-07T02:38:14;101464.67;;;16.71;57.07
78409;BME280;67697;50.750;-3.270;2023-08-07T02:40:39;101467.06;;;16.49;57.69
78409;BME280;67697;50.750;-3.270;2023-08-07T02:43:05;101464.65;;;16.25;59.60
78409;BME280;67697;50.750;-3.270;2023-08-07T02:45:30;101464.54;;;16.35;58.03
78409;BME280;67697;50.750;-3.270;2023-08-07T02:47:57;101471.65;;;16.17;58.09
78409;BME280;67697;50.750;-3.270;2023-08-07T02:50:21;101471.68;;;16.65;57.09
78409;BME280;67697;50.750;-3.270;2023-08-07T02:52:47;101473.21;;;16.75;56.39
78409;BME280;67697;50.750;-3.270;2023-08-07T02:55:13;101475.95;;;17.39;54.62
78409;BME280;67697;50.750;-3.270;2023-08-07T02:57:38;101472.65;;;16.79;56.28
78409;BME280;67697;50.750;-3.270;2023-08-07T03:00:10;101471.00;;;16.64;56.20
78409;BME280;67697;50.750;-3.270;2023-08-07T03:02:29;101472.09;;;16.47;56.53
78409;BME280;67697;50.750;-3.270;2023-08-07T03:04:55;101469.09;;;16.67;56.24
78409;BME280;67697;50.750;-3.270;2023-08-07T03:07:21;101469.69;;;16.44;57.21
78409;BME280;67697;50.750;-3.270;2023-08-07T03:09:46;101470.20;;;15.83;58.22
78409;BME280;67697;50.750;-3.270;2023-08-07T03:12:13;101469.85;;;16.02;58.42
78409;BME280;67697;50.750;-3.270;2023-08-07T03:14:37;101472.85;;;15.56;58.64
78409;BME280;67697;50.750;-3.270;2023-08-07T03:17:03;101469.59;;;15.63;60.20
78409;BME280;67697;50.750;-3.270;2023-08-07T03:19:29;101468.58;;;15.27;61.01
78409;BME280;67697;50.750;-3.270;2023-08-07T03:21:54;101463.74;;;15.87;60.74
78409;BME280;67697;50.750;-3.270;2023-08-07T03:24:20;101463.91;;;15.75;60.21
78409;BME280;67697;50.750;-3.270;2023-08-07T03:26:45;101462.58;;;15.80;60.69
78409;BME280;67697;50.750;-3.270;2023-08-07T03:29:11;101464.99;;;15.52;61.25
78409;BME280;67697;50.750;-3.270;2023-08-07T03:31:36;101462.59;;;15.59;60.66
78409;BME280;67697;50.750;-3.270;2023-08-07T03:34:02;101463.15;;;15.43;61.03
78409;BME280;67697;50.750;-3.270;2023-08-07T03:36:28;101466.23;;;16.30;58.55
78409;BME280;67697;50.750;-3.270;2023-08-07T03:38:53;101465.80;;;16.06;58.59
78409;BME280;67697;50.750;-3.270;2023-08-07T03:41:19;101463.23;;;16.34;57.67
78409;BME280;67697;50.750;-3.270;2023-08-07T03:43:44;101461.64;;;16.65;57.01
78409;BME280;67697;50.750;-3.270;2023-08-07T03:46:09;101460.76;;;16.26;57.06
78409;BME280;67697;50.750;-3.270;2023-08-07T03:48:35;101467.49;;;15.87;57.95
78409;BME280;67697;50.750;-3.270;2023-08-07T03:51:03;101468.99;;;16.32;57.56
78409;BME280;67697;50.750;-3.270;2023-08-07T03:53:26;101465.80;;;16.43;56.65
78409;BME280;67697;50.750;-3.270;2023-08-07T03:55:52;101463.75;;;16.77;56.46
78409;BME280;67697;50.750;-3.270;2023-08-07T03:58:17;101456.93;;;16.37;57.38
78409;BME280;67697;50.750;-3.270;2023-08-07T04:00:43;101457.60;;;16.31;57.58
78409;BME280;67697;50.750;-3.270;2023-08-07T04:03:08;101452.02;;;16.36;57.42
78409;BME280;67697;50.750;-3.270;2023-08-07T04:05:34;101448.96;;;15.43;58.97
78409;BME280;67697;50.750;-3.270;2023-08-07T04:08:00;101450.79;;;15.53;60.62
78409;BME280;67697;50.750;-3.270;2023-08-07T04:10:25;101449.61;;;15.25;60.80
78409;BME280;67697;50.750;-3.270;2023-08-07T04:12:51;101453.48;;;15.10;60.18
78409;BME280;67697;50.750;-3.270;2023-08-07T04:15:17;101454.17;;;15.54;59.79
78409;BME280;67697;50.750;-3.270;2023-08-07T04:17:42;101453.69;;;16.36;59.64
78409;BME280;67697;50.750;-3.270;2023-08-07T04:20:13;101451.47;;;16.42;57.98
78409;BME280;67697;50.750;-3.270;2023-08-07T04:22:33;101455.35;;;16.03;58.43
78409;BME280;67697;50.750;-3.270;2023-08-07T04:24:59;101454.12;;;15.61;60.04
78409;BME280;67697;50.750;-3.270;2023-08-07T04:27:25;101459.87;;;16.01;59.79
78409;BME280;67697;50.750;-3.270;2023-08-07T04:29:50;101460.00;;;15.77;59.97
78409;BME280;67697;50.750;-3.270;2023-08-07T04:32:16;101458.05;;;16.38;57.75
78409;BME280;67697;50.750;-3.270;2023-08-07T04:34:42;101461.38;;;15.74;57.33
78409;BME280;67697;50.750;-3.270;2023-08-07T04:37:08;101461.17;;;16.56;55.03
78409;BME280;67697;50.750;-3.270;2023-08-07T04:39:33;101461.00;;;16.82;53.13
78409;BME280;67697;50.750;-3.270;2023-08-07T04:41:59;101457.13;;;16.98;53.85
78409;BME280;67697;50.750;-3.270;2023-08-07T04:44:24;101459.76;;;16.09;55.05
78409;BME280;67697;50.750;-3.270;2023-08-07T04:46:50;101462.34;;;15.76;56.41
78409;BME280;67697;50.750;-3.270;2023-08-07T04:49:15;101472.18;;;15.05;58.93
78409;BME280;67697;50.750;-3.270;2023-08-07T04:51:41;101472.07;;;15.56;59.59
78409;BME280;67697;50.750;-3.270;2023-08-07T04:54:07;101469.07;;;15.41;60.29
78409;BME280;67697;50.750;-3.270;2023-08-07T04:56:32;101470.55;;;15.28;60.72
78409;BME280;67697;50.750;-3.270;2023-08-07T04:58:58;101471.82;;;15.12;61.03
78409;BME280;67697;50.750;-3.270;2023-08-07T05:01:24;101468.55;;;15.18;61.52
78409;BME280;67697;50.750;-3.270;2023-08-07T05:03:49;101466.48;;;15.11;61.95
78409;BME280;67697;50.750;-3.270;2023-08-07T05:06:15;101469.74;;;15.62;61.53
78409;BME280;67697;50.750;-3.270;2023-08-07T05:08:40;101471.60;;;16.65;59.88
78409;BME280;67697;50.750;-3.270;2023-08-07T05:11:06;101469.81;;;16.06;59.61
78409;BME280;67697;50.750;-3.270;2023-08-07T05:13:31;101472.45;;;15.47;61.28
78409;BME280;67697;50.750;-3.270;2023-08-07T05:15:57;101470.92;;;15.55;62.31
78409;BME280;67697;50.750;-3.270;2023-08-07T05:18:23;101469.64;;;15.62;61.83
78409;BME280;67697;50.750;-3.270;2023-08-07T05:20:48;101470.33;;;16.19;61.57
78409;BME280;67697;50.750;-3.270;2023-08-07T05:23:14;101472.06;;;16.06;61.61
78409;BME280;67697;50.750;-3.270;2023-08-07T05:25:40;101473.77;;;15.96;61.27
78409;BME280;67697;50.750;-3.270;2023-08-07T05:28:05;101480.22;;;14.45;65.90
78409;BME280;67697;50.750;-3.270;2023-08-07T05:30:31;101477.53;;;14.55;67.07
78409;BME280;67697;50.750;-3.270;2023-08-07T05:32:57;101473.03;;;15.05;66.48
78409;BME280;67697;50.750;-3.270;2023-08-07T05:35:22;101476.85;;;14.65;66.75
78409;BME280;67697;50.750;-3.270;2023-08-07T05:37:48;101474.27;;;13.54;71.72
78409;BME280;67697;50.750;-3.270;2023-08-07T05:40:14;101472.81;;;14.10;70.57
78409;BME280;67697;50.750;-3.270;2023-08-07T05:42:39;101474.98;;;14.41;69.48
78409;BME280;67697;50.750;-3.270;2023-08-07T05:45:05;101479.36;;;12.69;74.96
78409;BME280;67697;50.750;-3.270;2023-08-07T05:47:32;101478.13;;;13.40;73.69
78409;BME280;67697;50.750;-3.270;2023-08-07T05:49:56;101474.24;;;13.81;72.33
78409;BME280;67697;50.750;-3.270;2023-08-07T05:52:21;101479.17;;;13.35;72.42
78409;BME280;67697;50.750;-3.270;2023-08-07T05:54:47;101489.24;;;13.27;73.22
78409;BME280;67697;50.750;-3.270;2023-08-07T05:57:13;101496.51;;;12.82;77.26
78409;BME280;67697;50.750;-3.270;2023-08-07T05:59:38;101498.42;;;11.99;78.18
78409;BME280;67697;50.750;-3.270;2023-08-07T06:02:04;101495.43;;;13.02;75.42
78409;BME280;67697;50.750;-3.270;2023-08-07T06:04:29;101493.45;;;14.04;70.93
78409;BME280;67697;50.750;-3.270;2023-08-07T06:06:55;101492.01;;;13.70;73.04
78409;BME280;67697;50.750;-3.270;2023-08-07T06:09:20;101489.43;;;13.92;71.93
78409;BME280;67697;50.750;-3.270;2023-08-07T06:11:46;101483.68;;;14.06;72.33
78409;BME280;67697;50.750;-3.270;2023-08-07T06:14:12;101484.99;;;14.70;69.19
78409;BME280;67697;50.750;-3.270;2023-08-07T06:16:37;101481.87;;;14.90;68.32
78409;BME280;67697;50.750;-3.270;2023-08-07T06:19:03;101485.54;;;12.51;75.79
78409;BME280;67697;50.750;-3.270;2023-08-07T06:21:28;101492.35;;;14.19;71.37
78409;BME280;67697;50.750;-3.270;2023-08-07T06:23:54;101496.35;;;13.39;71.21
78409;BME280;67697;50.750;-3.270;2023-08-07T06:26:19;101492.67;;;14.47;70.83
78409;BME280;67697;50.750;-3.270;2023-08-07T06:28:45;101488.14;;;15.29;66.58
78409;BME280;67697;50.750;-3.270;2023-08-07T06:31:11;101496.74;;;15.29;67.80
78409;BME280;67697;50.750;-3.270;2023-08-07T06:33:36;101499.57;;;15.96;64.60
78409;BME280;67697;50.750;-3.270;2023-08-07T06:36:04;101498.44;;;15.80;64.06
78409;BME280;67697;50.750;-3.270;2023-08-07T06:38:27;101505.96;;;15.23;65.82
78409;BME280;67697;50.750;-3.270;2023-08-07T06:40:53;101511.30;;;15.18;67.37
78409;BME280;67697;50.750;-3.270;2023-08-07T06:43:19;101509.58;;;14.51;67.63
78409;BME280;67697;50.750;-3.270;2023-08-07T06:45:46;101507.17;;;14.60;69.05
78409;BME280;67697;50.750;-3.270;2023-08-07T06:48:10;101506.31;;;14.04;69.24
78409;BME280;67697;50.750;-3.270;2023-08-07T06:50:36;101507.50;;;14.29;71.50
78409;BME280;67697;50.750;-3.270;2023-08-07T06:53:01;101504.44;;;15.36;67.71
78409;BME280;67697;50.750;-3.270;2023-08-07T06:55:26;101506.71;;;14.29;70.52
78409;BME280;67697;50.750;-3.270;2023-08-07T06:57:52;101505.60;;;14.38;69.89
78409;BME280;67697;50.750;-3.270;2023-08-07T07:00:18;101501.97;;;15.86;66.42
78409;BME280;67697;50.750;-3.270;2023-08-07T07:02:43;101504.10;;;16.42;64.18
78409;BME280;67697;50.750;-3.270;2023-08-07T07:05:09;101503.26;;;16.12;65.50
78409;BME280;67697;50.750;-3.270;2023-08-07T07:07:35;101504.96;;;15.33;66.50
78409;BME280;67697;50.750;-3.270;2023-08-07T07:10:00;101511.35;;;15.31;67.07
78409;BME280;67697;50.750;-3.270;2023-08-07T07:12:25;101511.56;;;16.24;65.98
78409;BME280;67697;50.750;-3.270;2023-08-07T07:14:51;101507.82;;;17.13;63.73
78409;BME280;67697;50.750;-3.270;2023-08-07T07:17:16;101511.00;;;17.23;63.39
78409;BME280;67697;50.750;-3.270;2023-08-07T07:19:42;101520.78;;;14.27;69.15
78409;BME280;67697;50.750;-3.270;2023-08-07T07:22:07;101517.52;;;15.93;68.03
78409;BME280;67697;50.750;-3.270;2023-08-07T07:24:33;101517.40;;;16.33;66.14
78409;BME280;67697;50.750;-3.270;2023-08-07T07:27:05;101520.02;;;17.72;62.68
78409;BME280;67697;50.750;-3.270;2023-08-07T07:29:25;101519.87;;;17.44;62.98
78409;BME280;67697;50.750;-3.270;2023-08-07T07:31:50;101512.42;;;18.02;61.01
78409;BME280;67697;50.750;-3.270;2023-08-07T07:34:15;101516.49;;;16.72;65.37
78409;BME280;67697;50.750;-3.270;2023-08-07T07:36:41;101514.27;;;17.97;61.52
78409;BME280;67697;50.750;-3.270;2023-08-07T07:39:06;101522.82;;;15.63;69.20
78409;BME280;67697;50.750;-3.270;2023-08-07T07:41:32;101521.59;;;17.98;61.28
78409;BME280;67697;50.750;-3.270;2023-08-07T07:43:57;101522.90;;;18.55;60.06
78409;BME280;67697;50.750;-3.270;2023-08-07T07:46:23;101526.76;;;18.22;60.05
78409;BME280;67697;50.750;-3.270;2023-08-07T07:48:48;101525.17;;;19.00;60.24
78409;BME280;67697;50.750;-3.270;2023-08-07T07:51:14;101522.88;;;18.44;60.68
78409;BME280;67697;50.750;-3.270;2023-08-07T07:53:39;101518.03;;;18.86;59.88
78409;BME280;67697;50.750;-3.270;2023-08-07T07:56:05;101516.86;;;18.58;61.52
78409;BME280;67697;50.750;-3.270;2023-08-07T07:58:30;101514.79;;;19.11;60.02
78409;BME280;67697;50.750;-3.270;2023-08-07T08:00:56;101513.80;;;18.44;61.71
78409;BME280;67697;50.750;-3.270;2023-08-07T08:03:22;101513.96;;;19.37;58.39
78409;BME280;67697;50.750;-3.270;2023-08-07T08:05:49;101514.98;;;19.62;57.17
78409;BME280;67697;50.750;-3.270;2023-08-07T08:08:12;101514.41;;;18.33;60.77
78409;BME280;67697;50.750;-3.270;2023-08-07T08:10:38;101515.96;;;18.15;63.92
78409;BME280;67697;50.750;-3.270;2023-08-07T08:13:03;101520.20;;;19.51;61.51
78409;BME280;67697;50.750;-3.270;2023-08-07T08:15:29;101522.76;;;18.08;63.63
78409;BME280;67697;50.750;-3.270;2023-08-07T08:17:54;101516.71;;;18.60;62.77
78409;BME280;67697;50.750;-3.270;2023-08-07T08:20:20;101519.38;;;16.25;67.12
78409;BME280;67697;50.750;-3.270;2023-08-07T08:22:46;101512.72;;;18.67;63.53
78409;BME280;67697;50.750;-3.270;2023-08-07T08:25:11;101506.79;;;17.21;65.81
78409;BME280;67697;50.750;-3.270;2023-08-07T08:27:36;101500.72;;;17.79;64.95
78409;BME280;67697;50.750;-3.270;2023-08-07T08:30:02;101501.85;;;18.44;63.52
78409;BME280;67697;50.750;-3.270;2023-08-07T08:32:27;101509.92;;;19.04;62.24
78409;BME280;67697;50.750;-3.270;2023-08-07T08:34:53;101514.89;;;17.49;67.53
78409;BME280;67697;50.750;-3.270;2023-08-07T08:37:18;101518.32;;;16.47;68.69
78409;BME280;67697;50.750;-3.270;2023-08-07T08:39:44;101511.05;;;17.60;65.51
78409;BME280;67697;50.750;-3.270;2023-08-07T08:42:11;101510.56;;;17.90;65.78
78409;BME280;67697;50.750;-3.270;2023-08-07T08:44:36;101512.74;;;19.38;61.25
78409;BME280;67697;50.750;-3.270;2023-08-07T08:47:01;101511.82;;;19.44;61.46
78409;BME280;67697;50.750;-3.270;2023-08-07T08:49:30;101513.35;;;17.15;64.78
78409;BME280;67697;50.750;-3.270;2023-08-07T08:51:52;101519.51;;;17.08;66.27
78409;BME280;67697;50.750;-3.270;2023-08-07T08:54:17;101516.78;;;17.61;63.45
78409;BME280;67697;50.750;-3.270;2023-08-07T08:56:43;101509.36;;;17.28;60.84
78409;BME280;67697;50.750;-3.270;2023-08-07T08:59:09;101513.48;;;17.34;60.28
78409;BME280;67697;50.750;-3.270;2023-08-07T09:01:39;101512.04;;;17.69;58.81
78409;BME280;67697;50.750;-3.270;2023-08-07T09:04:00;101515.49;;;17.49;56.63
78409;BME280;67697;50.750;-3.270;2023-08-07T09:06:26;101528.68;;;16.21;59.97
78409;BME280;67697;50.750;-3.270;2023-08-07T09:08:51;101531.32;;;17.77;57.17
78409;BME280;67697;50.750;-3.270;2023-08-07T09:11:17;101526.12;;;17.90;56.69
78409;BME280;67697;50.750;-3.270;2023-08-07T09:13:43;101518.20;;;17.69;56.18
78409;BME280;67697;50.750;-3.270;2023-08-07T09:16:09;101508.32;;;15.89;60.80
78409;BME280;67697;50.750;-3.270;2023-08-07T09:18:33;101506.26;;;17.68;56.69
78409;BME280;67697;50.750;-3.270;2023-08-07T09:20:59;101500.86;;;17.94;55.85
78409;BME280;67697;50.750;-3.270;2023-08-07T09:23:24;101507.16;;;17.78;55.68
78409;BME280;67697;50.750;-3.270;2023-08-07T09:25:59;101515.48;;;17.41;56.57
78409;BME280;67697;50.750;-3.270;2023-08-07T09:28:15;101512.85;;;17.97;57.07
78409;BME280;67697;50.750;-3.270;2023-08-07T09:30:42;101510.99;;;17.56;58.31
78409;BME280;67697;50.750;-3.270;2023-08-07T09:33:06;101512.96;;;17.69;58.93
78409;BME280;67697;50.750;-3.270;2023-08-07T09:35:32;101514.33;;;17.78;56.64
78409;BME280;67697;50.750;-3.270;2023-08-07T09:37:57;101509.49;;;18.12;57.77
78409;BME280;67697;50.750;-3.270;2023-08-07T09:40:23;101510.23;;;18.09;57.30
78409;BME280;67697;50.750;-3.270;2023-08-07T09:42:51;101510.49;;;19.31;54.86
78409;BME280;67697;50.750;-3.270;2023-08-07T09:45:20;101503.59;;;18.94;50.46
78409;BME280;67697;50.750;-3.270;2023-08-07T09:47:39;101498.01;;;18.49;50.11
78409;BME280;67697;50.750;-3.270;2023-08-07T09:50:06;101502.50;;;19.41;50.07
78409;BME280;67697;50.750;-3.270;2023-08-07T09:52:30;101514.32;;;19.24;49.06
78409;BME280;67697;50.750;-3.270;2023-08-07T09:54:56;101506.81;;;17.99;50.43
78409;BME280;67697;50.750;-3.270;2023-08-07T09:57:21;101505.07;;;18.02;52.38
78409;BME280;67697;50.750;-3.270;2023-08-07T09:59:49;101505.86;;;18.03;51.40
78409;BME280;67697;50.750;-3.270;2023-08-07T10:02:13;101504.20;;;19.10;49.64
78409;BME280;67697;50.750;-3.270;2023-08-07T10:04:38;101502.88;;;19.12;49.88
78409;BME280;67697;50.750;-3.270;2023-08-07T10:07:04;101493.66;;;19.55;48.47
78409;BME280;67697;50.750;-3.270;2023-08-07T10:09:29;101494.80;;;18.94;45.82
78409;BME280;67697;50.750;-3.270;2023-08-07T10:11:54;101488.35;;;18.89;46.74
78409;BME280;67697;50.750;-3.270;2023-08-07T10:14:20;101487.41;;;18.57;47.87
78409;BME280;67697;50.750;-3.270;2023-08-07T10:16:46;101485.09;;;17.82;48.54
78409;BME280;67697;50.750;-3.270;2023-08-07T10:19:11;101477.10;;;18.26;49.49
78409;BME280;67697;50.750;-3.270;2023-08-07T10:21:39;101475.11;;;18.94;47.88
78409;BME280;67697;50.750;-3.270;2023-08-07T10:24:04;101480.95;;;18.32;49.44
78409;BME280;67697;50.750;-3.270;2023-08-07T10:26:27;101487.91;;;18.65;49.39
78409;BME280;67697;50.750;-3.270;2023-08-07T10:28:55;101485.35;;;19.01;50.37
78409;BME280;67697;50.750;-3.270;2023-08-07T10:31:19;101480.79;;;18.11;50.86
78409;BME280;67697;50.750;-3.270;2023-08-07T10:33:44;101474.22;;;18.53;51.65
78409;BME280;67697;50.750;-3.270;2023-08-07T10:36:10;101473.24;;;19.04;48.32
78409;BME280;67697;50.750;-3.270;2023-08-07T10:38:35;101472.36;;;18.59;48.79
78409;BME280;67697;50.750;-3.270;2023-08-07T10:41:02;101471.91;;;19.19;47.54
78409;BME280;67697;50.750;-3.270;2023-08-07T10:43:26;101467.34;;;19.07;47.06
78409;BME280;67697;50.750;-3.270;2023-08-07T10:45:52;101475.87;;;18.90;48.28
78409;BME280;67697;50.750;-3.270;2023-08-07T10:48:18;101469.86;;;18.93;48.34
78409;BME280;67697;50.750;-3.270;2023-08-07T10:50:50;101463.18;;;19.09;48.46
78409;BME280;67697;50.750;-3.270;2023-08-07T10:53:07;101465.78;;;19.64;47.01
78409;BME280;67697;50.750;-3.270;2023-08-07T10:55:43;101460.46;;;20.36;45.51
78409;BME280;67697;50.750;-3.270;2023-08-07T10:57:59;101458.39;;;20.30;46.40
78409;BME280;67697;50.750;-3.270;2023-08-07T11:00:26;101454.48;;;20.43;47.83
78409;BME280;67697;50.750;-3.270;2023-08-07T11:02:51;101459.62;;;19.14;48.19
78409;BME280;67697;50.750;-3.270;2023-08-07T11:05:15;101457.37;;;19.30;47.29
78409;BME280;67697;50.750;-3.270;2023-08-07T11:07:41;101455.40;;;20.07;45.62
78409;BME280;67697;50.750;-3.270;2023-08-07T11:10:15;101466.94;;;19.51;46.66
78409;BME280;67697;50.750;-3.270;2023-08-07T11:12:32;101466.23;;;20.59;45.31
78409;BME280;67697;50.750;-3.270;2023-08-07T11:14:57;101473.37;;;19.65;45.99
78409;BME280;67697;50.750;-3.270;2023-08-07T11:17:25;101466.61;;;19.02;45.13
78409;BME280;67697;50.750;-3.270;2023-08-07T11:19:48;101453.50;;;20.04;43.17
78409;BME280;67697;50.750;-3.270;2023-08-07T11:22:15;101448.99;;;20.39;43.08
78409;BME280;67697;50.750;-3.270;2023-08-07T11:24:39;101444.92;;;20.19;44.22
78409;BME280;67697;50.750;-3.270;2023-08-07T11:27:05;101453.07;;;19.54;44.50
78409;BME280;67697;50.750;-3.270;2023-08-07T11:29:30;101448.94;;;19.16;43.64
78409;BME280;67697;50.750;-3.270;2023-08-07T11:31:56;101451.99;;;19.19;45.02
78409;BME280;67697;50.750;-3.270;2023-08-07T11:34:21;101451.14;;;19.19;45.31
78409;BME280;67697;50.750;-3.270;2023-08-07T11:36:47;101439.39;;;19.95;42.45
78409;BME280;67697;50.750;-3.270;2023-08-07T11:39:14;101430.10;;;19.42;43.86
78409;BME280;67697;50.750;-3.270;2023-08-07T11:41:38;101432.54;;;20.43;45.78
78409;BME280;67697;50.750;-3.270;2023-08-07T11:44:07;101433.46;;;20.00;42.08
78409;BME280;67697;50.750;-3.270;2023-08-07T11:46:29;101426.32;;;20.26;45.18
78409;BME280;67697;50.750;-3.270;2023-08-07T11:48:56;101431.58;;;19.94;42.57
78409;BME280;67697;50.750;-3.270;2023-08-07T11:51:20;101424.10;;;20.58;42.30
78409;BME280;67697;50.750;-3.270;2023-08-07T11:53:45;101418.83;;;21.13;39.92
78409;BME280;67697;50.750;-3.270;2023-08-07T11:56:12;101422.24;;;21.40;40.77
78409;BME280;67697;50.750;-3.270;2023-08-07T11:58:37;101415.73;;;21.24;39.84
78409;BME280;67697;50.750;-3.270;2023-08-07T12:01:04;101411.28;;;20.11;40.00
78409;BME280;67697;50.750;-3.270;2023-08-07T12:03:29;101411.77;;;21.18;39.37
78409;BME280;67697;50.750;-3.270;2023-08-07T12:05:53;101406.01;;;20.14;39.08
78409;BME280;67697;50.750;-3.270;2023-08-07T12:08:18;101407.79;;;20.57;39.24
78409;BME280;67697;50.750;-3.270;2023-08-07T12:10:44;101399.54;;;20.80;38.37
78409;BME280;67697;50.750;-3.270;2023-08-07T12:13:14;101403.64;;;19.90;40.67
78409;BME280;67697;50.750;-3.270;2023-08-07T12:15:35;101406.46;;;20.08;41.49
78409;BME280;67697;50.750;-3.270;2023-08-07T12:18:01;101401.55;;;20.16;40.98
78409;BME280;67697;50.750;-3.270;2023-08-07T12:20:27;101399.16;;;20.72;40.31
78409;BME280;67697;50.750;-3.270;2023-08-07T12:22:51;101396.66;;;21.45;40.79
78409;BME280;67697;50.750;-3.270;2023-08-07T12:25:17;101399.70;;;21.05;39.60
78409;BME280;67697;50.750;-3.270;2023-08-07T12:27:42;101400.24;;;20.72;42.67
78409;BME280;67697;50.750;-3.270;2023-08-07T12:30:08;101402.47;;;20.99;40.81